createdAt,value
2017-08-07T00:00:58.805Z,11.0
2017-08-07T00:01:59.551Z,11.0
2017-08-07T00:03:00.299Z,11.0
2017-08-07T00:04:01.072Z,10.9
2017-08-07T00:05:01.878Z,11.0
2017-08-07T00:06:03.030Z,11.0
2017-08-07T00:07:03.767Z,11.0
2017-08-07T00:08:04.570Z,11.1
2017-08-07T00:09:05.313Z,11.0
2017-08-07T00:10:06.112Z,10.9
2017-08-07T00:11:07.052Z,10.9
2017-08-07T00:12:07.859Z,11.0
2017-08-07T00:13:08.600Z,10.9
2017-08-07T00:14:09.404Z,10.9
2017-08-07T00:15:10.132Z,11.0
2017-08-07T00:16:10.957Z,10.9
2017-08-07T00:17:11.746Z,10.9
2017-08-07T00:18:12.867Z,11.0
2017-08-07T00:19:13.660Z,10.9
2017-08-07T00:20:14.403Z,10.8
2017-08-07T00:21:15.210Z,10.8
2017-08-07T00:22:15.944Z,10.9
2017-08-07T00:23:16.755Z,10.8
2017-08-07T00:24:17.583Z,10.9
2017-08-07T00:25:18.310Z,10.9
2017-08-07T00:26:19.044Z,10.9
2017-08-07T00:27:19.850Z,10.8
2017-08-07T00:28:20.946Z,10.9
2017-08-07T00:29:21.768Z,10.8
2017-08-07T00:30:22.591Z,10.9
2017-08-07T00:31:23.388Z,10.8
2017-08-07T00:32:24.141Z,10.9
2017-08-07T00:33:25.075Z,10.8
2017-08-07T00:34:25.812Z,10.8
2017-08-07T00:35:26.542Z,10.7
2017-08-07T00:36:27.279Z,10.8
2017-08-07T00:37:28.010Z,10.8
2017-08-07T00:38:29.015Z,10.7
2017-08-07T00:39:29.743Z,10.7
2017-08-07T00:40:30.491Z,10.7
2017-08-07T00:41:31.312Z,10.7
2017-08-07T00:42:32.055Z,10.7
2017-08-07T00:43:33.126Z,10.7
2017-08-07T00:44:33.879Z,10.7
2017-08-07T00:45:34.614Z,10.6
2017-08-07T00:46:35.421Z,10.6
2017-08-07T00:47:36.241Z,10.6
2017-08-07T00:48:37.211Z,10.5
2017-08-07T00:49:38.030Z,10.5
2017-08-07T00:50:38.771Z,10.4
2017-08-07T00:51:39.516Z,10.5
2017-08-07T00:52:40.251Z,10.5
2017-08-07T00:53:40.992Z,10.5
2017-08-07T00:54:41.727Z,10.5
2017-08-07T00:55:42.470Z,10.5
2017-08-07T00:56:43.622Z,10.4
2017-08-07T00:57:44.412Z,10.5
2017-08-07T00:58:45.229Z,10.5
2017-08-07T00:59:45.965Z,10.5
2017-08-07T01:00:46.692Z,10.5
2017-08-07T01:01:47.724Z,10.4
2017-08-07T01:02:48.532Z,10.5
2017-08-07T01:03:49.360Z,10.4
2017-08-07T01:04:50.115Z,10.3
2017-08-07T01:05:50.850Z,10.3
2017-08-07T01:06:51.587Z,10.4
2017-08-07T01:07:52.727Z,10.3
2017-08-07T01:08:53.469Z,10.4
2017-08-07T01:09:54.211Z,10.4
2017-08-07T01:10:54.950Z,10.3
2017-08-07T01:11:55.675Z,10.3
2017-08-07T01:12:56.861Z,10.3
2017-08-07T01:13:57.661Z,10.3
2017-08-07T01:14:58.472Z,10.3
2017-08-07T01:15:59.207Z,10.3
2017-08-07T01:16:59.950Z,10.3
2017-08-07T01:18:00.973Z,10.3
2017-08-07T01:19:01.714Z,10.3
2017-08-07T01:20:02.451Z,10.2
2017-08-07T01:21:03.255Z,10.2
2017-08-07T01:22:04.073Z,10.2
2017-08-07T01:23:05.191Z,10.2
2017-08-07T01:24:05.928Z,10.3
2017-08-07T01:25:06.722Z,10.3
2017-08-07T01:26:07.443Z,10.2
2017-08-07T01:27:08.174Z,10.2
2017-08-07T01:28:09.215Z,10.2
2017-08-07T01:29:10.020Z,10.3
2017-08-07T01:30:10.761Z,10.2
2017-08-07T01:31:11.498Z,10.2
2017-08-07T01:32:12.240Z,10.2
2017-08-07T01:33:13.180Z,10.2
2017-08-07T01:34:13.921Z,10.2
2017-08-07T01:35:14.659Z,10.2
2017-08-07T01:36:15.394Z,10.3
2017-08-07T01:37:16.123Z,10.2
2017-08-07T01:38:17.072Z,10.3
2017-08-07T01:39:17.885Z,10.3
2017-08-07T01:40:18.711Z,10.3
2017-08-07T01:41:19.509Z,10.2
2017-08-07T01:42:20.264Z,10.2
2017-08-07T01:43:21.279Z,10.2
2017-08-07T01:44:22.020Z,10.2
2017-08-07T01:45:22.822Z,10.3
2017-08-07T01:46:23.535Z,10.3
2017-08-07T01:47:24.282Z,10.2
2017-08-07T01:48:25.089Z,10.2
2017-08-07T01:49:25.893Z,10.2
2017-08-07T01:50:26.920Z,10.2
2017-08-07T01:51:27.671Z,10.3
2017-08-07T01:52:28.471Z,10.2
2017-08-07T01:53:29.295Z,10.3
2017-08-07T01:54:30.028Z,10.4
2017-08-07T01:55:31.234Z,10.2
2017-08-07T01:56:32.034Z,10.3
2017-08-07T01:57:32.768Z,10.2
2017-08-07T01:58:33.506Z,10.2
2017-08-07T01:59:34.263Z,10.2
2017-08-07T02:00:35.050Z,10.1
2017-08-07T02:01:35.781Z,10.2
2017-08-07T02:02:37.043Z,10.2
2017-08-07T02:03:37.771Z,10.1
2017-08-07T02:04:38.512Z,10.1
2017-08-07T02:05:39.245Z,10.2
2017-08-07T02:06:39.971Z,10.1
2017-08-07T02:07:40.928Z,10.1
2017-08-07T02:08:41.656Z,10.1
2017-08-07T02:09:42.392Z,10.1
2017-08-07T02:10:43.204Z,10.1
2017-08-07T02:11:44.000Z,10.1
2017-08-07T02:12:45.092Z,10.1
2017-08-07T02:13:45.827Z,10.1
2017-08-07T02:14:46.571Z,10.1
2017-08-07T02:15:47.299Z,10.0
2017-08-07T02:16:48.100Z,10.1
2017-08-07T02:17:49.187Z,10.1
2017-08-07T02:18:49.937Z,10.1
2017-08-07T02:19:50.709Z,10.1
2017-08-07T02:20:51.440Z,10.2
2017-08-07T02:21:52.171Z,10.1
2017-08-07T02:22:53.311Z,10.1
2017-08-07T02:23:54.045Z,10.1
2017-08-07T02:24:54.791Z,10.0
2017-08-07T02:25:55.527Z,10.1
2017-08-07T02:26:56.340Z,10.1
2017-08-07T02:27:57.422Z,10.0
2017-08-07T02:28:58.157Z,10.0
2017-08-07T02:29:58.903Z,10.1
2017-08-07T02:30:59.733Z,10.0
2017-08-07T02:32:00.530Z,10.1
2017-08-07T02:33:01.283Z,10.0
2017-08-07T02:34:02.024Z,10.0
2017-08-07T02:35:09.023Z,10.0
2017-08-07T02:36:09.764Z,10.0
2017-08-07T02:37:10.578Z,10.1
2017-08-07T02:38:11.706Z,10.0
2017-08-07T02:39:12.517Z,9.9
2017-08-07T02:40:13.338Z,10.0
2017-08-07T02:41:14.130Z,10.0
2017-08-07T02:42:14.869Z,10.0
2017-08-07T02:43:16.027Z,10.0
2017-08-07T02:44:16.749Z,10.0
2017-08-07T02:45:17.493Z,9.9
2017-08-07T02:46:18.302Z,10.0
2017-08-07T02:47:19.048Z,10.0
2017-08-07T02:48:20.128Z,10.0
2017-08-07T02:49:20.871Z,9.9
2017-08-07T02:50:21.676Z,10.0
2017-08-07T02:51:22.411Z,10.0
2017-08-07T02:52:23.175Z,9.9
2017-08-07T02:53:24.152Z,9.9
2017-08-07T02:54:24.937Z,9.9
2017-08-07T02:55:25.682Z,10.0
2017-08-07T02:56:26.431Z,9.9
2017-08-07T02:57:27.241Z,9.9
2017-08-07T02:58:28.339Z,10.0
2017-08-07T02:59:29.167Z,10.0
2017-08-07T03:00:29.970Z,9.9
2017-08-07T03:01:30.780Z,9.9
2017-08-07T03:02:31.562Z,9.8
2017-08-07T03:03:32.309Z,9.9
2017-08-07T03:04:33.149Z,9.9
2017-08-07T03:05:34.205Z,9.8
2017-08-07T03:06:34.941Z,9.8
2017-08-07T03:07:35.716Z,9.8
2017-08-07T03:08:36.518Z,9.8
2017-08-07T03:09:37.250Z,9.7
2017-08-07T03:10:38.048Z,9.7
2017-08-07T03:11:39.130Z,9.8
2017-08-07T03:12:39.939Z,9.8
2017-08-07T03:13:40.665Z,9.7
2017-08-07T03:14:41.389Z,9.7
2017-08-07T03:15:42.121Z,9.7
2017-08-07T03:16:43.169Z,9.7
2017-08-07T03:17:43.902Z,9.8
2017-08-07T03:18:44.641Z,9.8
2017-08-07T03:19:45.436Z,9.7
2017-08-07T03:20:46.215Z,9.7
2017-08-07T03:21:47.347Z,9.7
2017-08-07T03:22:48.173Z,9.7
2017-08-07T03:23:48.912Z,9.7
2017-08-07T03:24:49.705Z,9.7
2017-08-07T03:25:50.442Z,9.7
2017-08-07T03:26:51.478Z,9.6
2017-08-07T03:27:52.217Z,9.7
2017-08-07T03:28:52.956Z,9.7
2017-08-07T03:29:53.777Z,9.6
2017-08-07T03:30:54.508Z,9.6
2017-08-07T03:31:55.550Z,9.6
2017-08-07T03:32:56.362Z,9.6
2017-08-07T03:33:57.082Z,9.7
2017-08-07T03:34:57.813Z,9.6
2017-08-07T03:35:58.568Z,9.6
2017-08-07T03:36:59.661Z,9.7
2017-08-07T03:38:00.421Z,9.7
2017-08-07T03:39:01.189Z,9.6
2017-08-07T03:40:02.014Z,9.5
2017-08-07T03:41:02.731Z,9.6
2017-08-07T03:42:03.953Z,9.6
2017-08-07T03:43:04.681Z,9.6
2017-08-07T03:44:05.416Z,9.7
2017-08-07T03:45:06.175Z,9.6
2017-08-07T03:46:06.913Z,9.6
2017-08-07T03:47:07.716Z,9.6
2017-08-07T03:48:08.479Z,9.6
2017-08-07T03:49:09.282Z,9.6
2017-08-07T03:50:10.023Z,9.6
2017-08-07T03:51:10.755Z,9.6
2017-08-07T03:52:11.895Z,9.6
2017-08-07T03:53:12.711Z,9.6
2017-08-07T03:54:13.507Z,9.6
2017-08-07T03:55:14.249Z,9.6
2017-08-07T03:56:14.966Z,9.6
2017-08-07T03:57:15.987Z,9.5
2017-08-07T03:58:16.810Z,9.6
2017-08-07T03:59:17.534Z,9.5
2017-08-07T04:00:18.268Z,9.4
2017-08-07T04:01:19.026Z,9.5
2017-08-07T04:02:20.170Z,9.5
2017-08-07T04:03:20.866Z,9.5
2017-08-07T04:04:21.603Z,9.6
2017-08-07T04:05:22.423Z,9.5
2017-08-07T04:06:23.148Z,9.5
2017-08-07T04:07:24.236Z,9.6
2017-08-07T04:08:24.977Z,9.6
2017-08-07T04:09:25.711Z,9.5
2017-08-07T04:10:26.437Z,9.6
2017-08-07T04:11:27.201Z,9.7
2017-08-07T04:12:28.139Z,9.6
2017-08-07T04:13:28.882Z,9.6
2017-08-07T04:14:29.612Z,9.6
2017-08-07T04:15:30.352Z,9.6
2017-08-07T04:16:31.149Z,9.6
2017-08-07T04:17:32.085Z,9.6
2017-08-07T04:18:32.899Z,9.6
2017-08-07T04:19:33.702Z,9.7
2017-08-07T04:20:34.440Z,9.7
2017-08-07T04:21:35.181Z,9.7
2017-08-07T04:22:36.162Z,9.7
2017-08-07T04:23:36.960Z,9.6
2017-08-07T04:24:37.799Z,9.6
2017-08-07T04:25:38.531Z,9.6
2017-08-07T04:26:39.312Z,9.6
2017-08-07T04:27:40.046Z,9.6
2017-08-07T04:28:40.851Z,9.7
2017-08-07T04:29:41.670Z,9.7
2017-08-07T04:30:42.465Z,9.7
2017-08-07T04:31:43.497Z,9.7
2017-08-07T04:32:44.242Z,9.7
2017-08-07T04:33:45.060Z,9.6
2017-08-07T04:34:45.869Z,9.7
2017-08-07T04:35:46.662Z,9.7
2017-08-07T04:36:47.742Z,9.7
2017-08-07T04:37:48.485Z,9.7
2017-08-07T04:38:49.306Z,9.7
2017-08-07T04:39:50.091Z,9.7
2017-08-07T04:40:50.831Z,9.8
2017-08-07T04:41:51.928Z,9.8
2017-08-07T04:42:52.697Z,9.8
2017-08-07T04:43:53.429Z,9.8
2017-08-07T04:44:54.162Z,9.8
2017-08-07T04:45:54.900Z,9.7
2017-08-07T04:46:55.895Z,9.8
2017-08-07T04:47:56.636Z,9.8
2017-08-07T04:48:57.389Z,9.9
2017-08-07T04:49:58.116Z,9.9
2017-08-07T04:50:58.941Z,9.9
2017-08-07T04:52:00.111Z,9.9
2017-08-07T04:53:00.901Z,9.9
2017-08-07T04:54:01.628Z,9.9
2017-08-07T04:55:02.372Z,10.0
2017-08-07T04:56:03.136Z,10.0
2017-08-07T04:57:04.274Z,9.9
2017-08-07T04:58:05.085Z,10.0
2017-08-07T04:59:05.901Z,10.0
2017-08-07T05:00:06.629Z,10.0
2017-08-07T05:01:07.415Z,10.0
2017-08-07T05:02:08.512Z,10.0
2017-08-07T05:03:09.251Z,10.0
2017-08-07T05:04:10.092Z,10.1
2017-08-07T05:05:10.826Z,10.1
2017-08-07T05:06:11.571Z,10.0
2017-08-07T05:07:12.731Z,10.1
2017-08-07T05:08:13.529Z,10.2
2017-08-07T05:09:14.361Z,10.3
2017-08-07T05:10:15.097Z,10.3
2017-08-07T05:11:15.838Z,10.4
2017-08-07T05:12:17.065Z,10.3
2017-08-07T05:13:17.796Z,10.4
2017-08-07T05:14:18.548Z,10.3
2017-08-07T05:15:19.285Z,10.3
2017-08-07T05:16:20.088Z,10.4
2017-08-07T05:17:21.075Z,10.4
2017-08-07T05:18:21.882Z,10.5
2017-08-07T05:19:22.618Z,10.6
2017-08-07T05:20:23.403Z,10.7
2017-08-07T05:21:24.222Z,10.8
2017-08-07T05:22:25.428Z,10.7
2017-08-07T05:23:26.151Z,10.8
2017-08-07T05:24:26.897Z,10.9
2017-08-07T05:25:27.646Z,11.0
2017-08-07T05:26:28.395Z,11.1
2017-08-07T05:27:29.555Z,11.3
2017-08-07T05:28:30.292Z,11.5
2017-08-07T05:29:31.027Z,11.7
2017-08-07T05:30:31.804Z,12.0
2017-08-07T05:31:32.516Z,12.2
2017-08-07T05:32:33.654Z,12.4
2017-08-07T05:33:34.461Z,12.6
2017-08-07T05:34:35.205Z,12.9
2017-08-07T05:35:35.989Z,13.1
2017-08-07T05:36:37.060Z,13.5
2017-08-07T05:37:38.190Z,13.6
2017-08-07T05:38:38.930Z,13.7
2017-08-07T05:39:39.662Z,13.8
2017-08-07T05:40:40.412Z,13.9
2017-08-07T05:41:41.226Z,14.1
2017-08-07T05:42:42.035Z,14.2
2017-08-07T05:43:42.848Z,14.4
2017-08-07T05:44:43.970Z,14.6
2017-08-07T05:45:44.752Z,14.6
2017-08-07T05:46:45.577Z,14.7
2017-08-07T05:47:46.307Z,14.8
2017-08-07T05:48:47.081Z,14.9
2017-08-07T05:49:48.120Z,15.1
2017-08-07T05:50:48.940Z,15.3
2017-08-07T05:51:49.762Z,15.4
2017-08-07T05:52:50.516Z,15.6
2017-08-07T05:53:51.330Z,15.8
2017-08-07T05:54:52.068Z,15.9
2017-08-07T05:55:53.207Z,16.0
2017-08-07T05:56:53.946Z,15.9
2017-08-07T05:57:54.693Z,15.9
2017-08-07T05:58:55.430Z,15.8
2017-08-07T05:59:56.239Z,15.9
2017-08-07T06:00:57.362Z,15.9
2017-08-07T06:01:58.108Z,15.9
2017-08-07T06:02:58.850Z,15.9
2017-08-07T06:03:59.587Z,15.9
2017-08-07T06:05:00.322Z,15.9
2017-08-07T06:06:01.073Z,16.0
2017-08-07T06:07:01.810Z,16.0
2017-08-07T06:08:02.855Z,15.9
2017-08-07T06:09:03.628Z,15.9
2017-08-07T06:10:04.358Z,15.9
2017-08-07T06:11:05.101Z,15.9
2017-08-07T06:12:05.855Z,15.8
2017-08-07T06:13:06.990Z,15.7
2017-08-07T06:14:07.732Z,15.8
2017-08-07T06:15:08.477Z,15.8
2017-08-07T06:16:09.217Z,15.7
2017-08-07T06:17:09.953Z,15.8
2017-08-07T06:18:11.051Z,15.8
2017-08-07T06:19:11.796Z,15.8
2017-08-07T06:20:12.600Z,15.8
2017-08-07T06:21:13.328Z,15.8
2017-08-07T06:22:14.077Z,15.7
2017-08-07T06:23:15.003Z,15.7
2017-08-07T06:24:15.756Z,15.7
2017-08-07T06:25:16.563Z,15.7
2017-08-07T06:26:17.313Z,15.8
2017-08-07T06:27:18.119Z,15.8
2017-08-07T06:28:19.158Z,15.9
2017-08-07T06:29:19.902Z,15.9
2017-08-07T06:30:20.721Z,16.0
2017-08-07T06:31:21.542Z,16.0
2017-08-07T06:32:22.278Z,16.0
2017-08-07T06:33:23.379Z,16.0
2017-08-07T06:34:24.118Z,16.1
2017-08-07T06:35:24.853Z,16.1
2017-08-07T06:36:25.587Z,16.2
2017-08-07T06:37:26.326Z,16.3
2017-08-07T06:38:27.431Z,16.3
2017-08-07T06:39:28.183Z,16.3
2017-08-07T06:40:28.973Z,16.5
2017-08-07T06:41:29.726Z,16.5
2017-08-07T06:42:30.546Z,16.5
2017-08-07T06:43:31.538Z,16.6
2017-08-07T06:44:32.268Z,16.7
2017-08-07T06:45:33.016Z,16.7
2017-08-07T06:46:33.751Z,16.7
2017-08-07T06:47:34.562Z,16.8
2017-08-07T06:48:35.548Z,16.8
2017-08-07T06:49:36.287Z,16.9
2017-08-07T06:50:37.109Z,16.9
2017-08-07T06:51:37.927Z,17.0
2017-08-07T06:52:38.668Z,17.1
2017-08-07T06:53:39.828Z,17.1
2017-08-07T06:54:40.567Z,17.2
2017-08-07T06:55:41.303Z,17.3
2017-08-07T06:56:42.060Z,17.3
2017-08-07T06:57:42.870Z,17.3
2017-08-07T06:58:43.862Z,17.3
2017-08-07T06:59:44.688Z,17.4
2017-08-07T07:00:45.422Z,17.5
2017-08-07T07:01:46.153Z,17.6
2017-08-07T07:02:46.912Z,17.7
2017-08-07T07:03:47.964Z,17.7
2017-08-07T07:04:48.704Z,17.7
2017-08-07T07:05:49.441Z,17.8
2017-08-07T07:06:50.178Z,17.9
2017-08-07T07:07:50.915Z,18.0
2017-08-07T07:08:51.849Z,18.1
2017-08-07T07:09:52.662Z,18.2
2017-08-07T07:10:53.393Z,18.4
2017-08-07T07:11:54.122Z,18.5
2017-08-07T07:12:54.953Z,18.7
2017-08-07T07:13:56.168Z,18.8
2017-08-07T07:14:56.904Z,19.0
2017-08-07T07:15:57.680Z,19.2
2017-08-07T07:16:58.421Z,19.3
2017-08-07T07:17:59.171Z,19.4
2017-08-07T07:19:00.221Z,19.8
2017-08-07T07:20:00.962Z,19.8
2017-08-07T07:21:01.702Z,20.1
2017-08-07T07:22:02.507Z,20.3
2017-08-07T07:23:03.299Z,20.5
2017-08-07T07:24:04.408Z,20.6
2017-08-07T07:25:05.179Z,20.8
2017-08-07T07:26:06.022Z,21.0
2017-08-07T07:27:06.723Z,21.2
2017-08-07T07:28:07.471Z,21.1
2017-08-07T07:29:08.557Z,21.4
2017-08-07T07:30:09.309Z,21.8
2017-08-07T07:31:10.058Z,22.1
2017-08-07T07:32:10.800Z,22.2
2017-08-07T07:33:11.540Z,22.2
2017-08-07T07:34:12.579Z,22.3
2017-08-07T07:35:13.414Z,21.8
2017-08-07T07:36:14.152Z,21.5
2017-08-07T07:37:14.894Z,21.7
2017-08-07T07:38:15.632Z,22.2
2017-08-07T07:39:16.828Z,22.8
2017-08-07T07:40:17.581Z,22.8
2017-08-07T07:41:18.354Z,23.1
2017-08-07T07:42:19.099Z,22.9
2017-08-07T07:43:19.932Z,23.2
2017-08-07T07:44:21.105Z,23.3
2017-08-07T07:45:21.837Z,23.1
2017-08-07T07:46:22.596Z,23.2
2017-08-07T07:47:23.440Z,23.3
2017-08-07T07:48:24.243Z,23.6
2017-08-07T07:49:25.360Z,23.2
2017-08-07T07:50:26.124Z,23.5
2017-08-07T07:51:26.872Z,23.8
2017-08-07T07:52:27.695Z,23.9
2017-08-07T07:53:28.438Z,24.1
2017-08-07T07:54:29.484Z,24.2
2017-08-07T07:55:30.224Z,24.2
2017-08-07T07:56:31.060Z,24.0
2017-08-07T07:57:31.882Z,23.8
2017-08-07T07:58:32.684Z,23.9
2017-08-07T07:59:33.896Z,24.1
2017-08-07T08:00:35.486Z,24.1
2017-08-07T08:01:36.523Z,24.1
2017-08-07T08:02:37.353Z,24.2
2017-08-07T08:03:38.168Z,24.4
2017-08-07T08:04:39.508Z,24.4
2017-08-07T08:05:40.296Z,23.8
2017-08-07T08:06:41.094Z,23.8
2017-08-07T08:07:41.935Z,24.0
2017-08-07T08:08:42.683Z,23.7
2017-08-07T08:09:43.910Z,23.5
2017-08-07T08:10:44.653Z,23.6
2017-08-07T08:11:45.481Z,23.6
2017-08-07T08:12:46.222Z,23.6
2017-08-07T08:13:46.962Z,23.8
2017-08-07T08:14:48.110Z,23.9
2017-08-07T08:15:48.877Z,24.1
2017-08-07T08:16:49.648Z,23.8
2017-08-07T08:17:50.431Z,24.2
2017-08-07T08:18:51.150Z,24.4
2017-08-07T08:19:51.962Z,24.4
2017-08-07T08:20:53.099Z,24.4
2017-08-07T08:21:53.843Z,24.5
2017-08-07T08:22:54.590Z,24.7
2017-08-07T08:23:55.334Z,24.9
2017-08-07T08:24:56.082Z,24.9
2017-08-07T08:25:57.083Z,24.9
2017-08-07T08:26:57.826Z,24.7
2017-08-07T08:27:58.566Z,24.0
2017-08-07T08:28:59.310Z,24.2
2017-08-07T08:30:00.051Z,24.4
2017-08-07T08:31:01.138Z,24.5
2017-08-07T08:32:01.891Z,24.8
2017-08-07T08:33:02.645Z,24.8
2017-08-07T08:34:03.426Z,25.1
2017-08-07T08:35:04.178Z,25.5
2017-08-07T08:36:05.329Z,25.6
2017-08-07T08:37:06.135Z,25.8
2017-08-07T08:38:06.951Z,26.1
2017-08-07T08:39:07.769Z,26.1
2017-08-07T08:40:08.517Z,26.2
2017-08-07T08:41:09.265Z,26.0
2017-08-07T08:42:10.019Z,26.2
2017-08-07T08:43:10.756Z,26.4
2017-08-07T08:44:11.512Z,26.4
2017-08-07T08:45:12.566Z,26.1
2017-08-07T08:46:13.379Z,25.8
2017-08-07T08:47:14.213Z,25.7
2017-08-07T08:48:15.163Z,25.4
2017-08-07T08:49:15.954Z,25.5
2017-08-07T08:50:17.189Z,25.9
2017-08-07T08:51:18.006Z,26.2
2017-08-07T08:52:18.771Z,26.5
2017-08-07T08:53:19.535Z,26.4
2017-08-07T08:54:20.302Z,26.7
2017-08-07T08:55:21.449Z,26.6
2017-08-07T08:56:22.587Z,26.9
2017-08-07T08:57:23.389Z,27.2
2017-08-07T08:58:24.141Z,27.3
2017-08-07T08:59:24.962Z,27.4
2017-08-07T09:00:26.124Z,27.6
2017-08-07T09:01:26.871Z,27.7
2017-08-07T09:02:27.693Z,27.9
2017-08-07T09:03:28.438Z,27.6
2017-08-07T09:04:29.192Z,27.0
2017-08-07T09:05:29.948Z,26.5
2017-08-07T09:06:31.045Z,26.8
2017-08-07T09:07:31.847Z,27.1
2017-08-07T09:08:32.641Z,27.4
2017-08-07T09:09:33.373Z,27.6
2017-08-07T09:10:34.197Z,27.7
2017-08-07T09:11:35.444Z,27.8
2017-08-07T09:12:36.159Z,27.2
2017-08-07T09:13:36.960Z,27.0
2017-08-07T09:14:37.748Z,26.4
2017-08-07T09:15:38.577Z,26.9
2017-08-07T09:16:39.776Z,27.1
2017-08-07T09:17:40.499Z,27.5
2017-08-07T09:18:41.315Z,27.7
2017-08-07T09:19:42.076Z,28.0
2017-08-07T09:20:42.888Z,28.0
2017-08-07T09:21:44.159Z,27.9
2017-08-07T09:22:44.983Z,28.1
2017-08-07T09:23:45.730Z,28.3
2017-08-07T09:24:46.480Z,27.9
2017-08-07T09:25:47.228Z,28.0
2017-08-07T09:26:47.979Z,28.0
2017-08-07T09:27:48.790Z,28.3
2017-08-07T09:28:49.622Z,28.0
2017-08-07T09:29:50.742Z,27.8
2017-08-07T09:30:51.488Z,27.9
2017-08-07T09:31:52.304Z,27.9
2017-08-07T09:32:53.108Z,27.0
2017-08-07T09:33:53.873Z,26.4
2017-08-07T09:34:54.705Z,26.5
2017-08-07T09:35:55.859Z,26.5
2017-08-07T09:36:56.696Z,26.3
2017-08-07T09:37:57.532Z,26.6
2017-08-07T09:38:58.353Z,26.8
2017-08-07T09:39:59.081Z,27.0
2017-08-07T09:41:00.229Z,27.3
2017-08-07T09:42:00.976Z,27.5
2017-08-07T09:43:01.721Z,27.7
2017-08-07T09:44:02.515Z,27.8
2017-08-07T09:45:03.265Z,28.1
2017-08-07T09:46:04.052Z,28.4
2017-08-07T09:47:05.108Z,28.3
2017-08-07T09:48:06.006Z,28.5
2017-08-07T09:49:06.748Z,28.4
2017-08-07T09:50:08.242Z,28.5
2017-08-07T09:51:09.061Z,28.5
2017-08-07T09:52:10.745Z,28.6
2017-08-07T09:53:11.802Z,28.8
2017-08-07T09:54:12.558Z,28.8
2017-08-07T09:55:13.330Z,29.0
2017-08-07T09:56:14.154Z,29.0
2017-08-07T09:57:14.908Z,27.9
2017-08-07T09:58:15.735Z,28.2
2017-08-07T09:59:16.983Z,28.5
2017-08-07T10:00:17.749Z,28.4
2017-08-07T10:01:18.544Z,28.7
2017-08-07T10:02:19.288Z,29.0
2017-08-07T10:03:20.148Z,29.3
2017-08-07T10:04:21.246Z,29.4
2017-08-07T10:05:22.007Z,29.7
2017-08-07T10:06:22.876Z,29.7
2017-08-07T10:07:23.669Z,29.5
2017-08-07T10:08:24.482Z,29.7
2017-08-07T10:09:25.470Z,29.7
2017-08-07T10:10:26.238Z,29.5
2017-08-07T10:11:27.059Z,28.6
2017-08-07T10:12:27.812Z,28.8
2017-08-07T10:13:28.549Z,29.2
2017-08-07T10:14:29.702Z,29.3
2017-08-07T10:15:30.452Z,28.3
2017-08-07T10:16:31.205Z,28.2
2017-08-07T10:17:32.042Z,28.0
2017-08-07T10:18:32.794Z,28.3
2017-08-07T10:19:33.959Z,28.7
2017-08-07T10:20:34.714Z,29.0
2017-08-07T10:21:35.973Z,29.3
2017-08-07T10:22:36.709Z,29.7
2017-08-07T10:23:37.458Z,29.9
2017-08-07T10:24:38.272Z,29.8
2017-08-07T10:25:39.079Z,29.9
2017-08-07T10:26:40.217Z,30.2
2017-08-07T10:27:40.960Z,30.1
2017-08-07T10:28:41.720Z,29.7
2017-08-07T10:29:42.484Z,29.9
2017-08-07T10:30:43.297Z,30.1
2017-08-07T10:31:44.284Z,29.6
2017-08-07T10:32:45.047Z,29.9
2017-08-07T10:33:45.863Z,29.9
2017-08-07T10:34:46.691Z,29.9
2017-08-07T10:35:47.438Z,30.3
2017-08-07T10:36:48.575Z,29.9
2017-08-07T10:37:49.320Z,30.3
2017-08-07T10:38:50.070Z,29.8
2017-08-07T10:39:50.898Z,30.0
2017-08-07T10:40:51.729Z,30.1
2017-08-07T10:41:52.835Z,30.2
2017-08-07T10:42:53.580Z,30.2
2017-08-07T10:43:54.329Z,30.5
2017-08-07T10:44:55.081Z,30.8
2017-08-07T10:45:55.825Z,30.6
2017-08-07T10:46:56.902Z,30.3
2017-08-07T10:47:57.652Z,30.1
2017-08-07T10:48:58.479Z,30.6
2017-08-07T10:49:59.292Z,30.8
2017-08-07T10:51:00.040Z,31.4
2017-08-07T10:52:01.001Z,30.6
2017-08-07T10:53:01.740Z,30.1
2017-08-07T10:54:02.517Z,29.8
2017-08-07T10:55:03.337Z,30.0
2017-08-07T10:56:04.190Z,30.1
2017-08-07T10:57:05.349Z,30.5
2017-08-07T10:58:06.161Z,30.5
2017-08-07T10:59:06.903Z,30.7
2017-08-07T11:00:07.738Z,30.9
2017-08-07T11:01:08.507Z,31.0
2017-08-07T11:02:09.647Z,31.2
2017-08-07T11:03:10.397Z,30.7
2017-08-07T11:04:11.140Z,31.1
2017-08-07T11:05:11.904Z,31.2
2017-08-07T11:06:12.613Z,31.7
2017-08-07T11:07:13.431Z,31.8
2017-08-07T11:08:14.196Z,32.1
2017-08-07T11:09:14.930Z,31.6
2017-08-07T11:10:15.758Z,31.1
2017-08-07T11:11:16.602Z,31.0
2017-08-07T11:12:17.862Z,31.2
2017-08-07T11:13:18.628Z,30.9
2017-08-07T11:14:19.370Z,30.9
2017-08-07T11:15:20.442Z,31.2
2017-08-07T11:16:21.167Z,30.7
2017-08-07T11:17:22.369Z,30.6
2017-08-07T11:18:23.122Z,30.7
2017-08-07T11:19:24.350Z,30.9
2017-08-07T11:20:25.064Z,31.1
2017-08-07T11:21:25.890Z,31.7
2017-08-07T11:22:26.964Z,31.9
2017-08-07T11:23:27.810Z,31.8
2017-08-07T11:24:28.838Z,31.2
2017-08-07T11:25:29.654Z,31.0
2017-08-07T11:26:30.500Z,30.1
2017-08-07T11:27:31.501Z,29.9
2017-08-07T11:28:32.250Z,30.3
2017-08-07T11:29:33.005Z,29.9
2017-08-07T11:30:33.840Z,30.2
2017-08-07T11:31:34.597Z,30.5
2017-08-07T11:32:35.701Z,31.2
2017-08-07T11:33:36.569Z,30.9
2017-08-07T11:34:37.413Z,30.9
2017-08-07T11:35:38.228Z,31.4
2017-08-07T11:36:38.997Z,31.6
2017-08-07T11:37:40.103Z,31.9
2017-08-07T11:38:40.936Z,32.4
2017-08-07T11:39:41.775Z,31.6
2017-08-07T11:40:42.733Z,32.0
2017-08-07T11:41:43.557Z,32.1
2017-08-07T11:42:44.311Z,31.3
2017-08-07T11:43:45.135Z,31.6
2017-08-07T11:44:45.971Z,32.1
2017-08-07T11:45:47.066Z,32.4
2017-08-07T11:46:47.811Z,32.8
2017-08-07T11:47:48.558Z,33.1
2017-08-07T11:48:49.381Z,32.5
2017-08-07T11:49:50.187Z,32.8
2017-08-07T11:50:51.270Z,32.8
2017-08-07T11:51:52.027Z,32.8
2017-08-07T11:52:52.767Z,32.6
2017-08-07T11:53:53.524Z,33.0
2017-08-07T11:54:54.338Z,33.3
2017-08-07T11:55:55.096Z,32.5
2017-08-07T11:56:55.922Z,32.2
2017-08-07T11:57:56.709Z,32.7
2017-08-07T11:58:57.653Z,32.8
2017-08-07T11:59:58.472Z,33.2
2017-08-07T12:00:59.234Z,33.6
2017-08-07T12:02:00.062Z,33.6
2017-08-07T12:03:00.815Z,33.5
2017-08-07T12:04:01.976Z,33.5
2017-08-07T12:05:02.723Z,33.7
2017-08-07T12:06:03.493Z,33.9
2017-08-07T12:07:04.291Z,34.0
2017-08-07T12:08:05.036Z,34.1
2017-08-07T12:09:06.085Z,34.0
2017-08-07T12:10:06.916Z,34.0
2017-08-07T12:11:07.671Z,34.2
2017-08-07T12:12:08.499Z,34.3
2017-08-07T12:13:09.251Z,34.3
2017-08-07T12:14:10.358Z,34.7
2017-08-07T12:15:11.176Z,34.7
2017-08-07T12:16:11.938Z,34.8
2017-08-07T12:17:12.674Z,34.9
2017-08-07T12:18:13.440Z,34.6
2017-08-07T12:19:14.585Z,34.4
2017-08-07T12:20:15.356Z,34.0
2017-08-07T12:21:16.182Z,33.6
2017-08-07T12:22:16.937Z,33.4
2017-08-07T12:23:17.762Z,32.6
2017-08-07T12:24:18.889Z,32.7
2017-08-07T12:25:19.651Z,33.0
2017-08-07T12:26:20.390Z,33.2
2017-08-07T12:27:21.150Z,33.4
2017-08-07T12:28:21.896Z,33.4
2017-08-07T12:29:23.009Z,32.8
2017-08-07T12:30:23.821Z,33.3
2017-08-07T12:31:24.566Z,32.8
2017-08-07T12:32:25.706Z,32.8
2017-08-07T12:33:26.411Z,32.3
2017-08-07T12:34:27.607Z,32.0
2017-08-07T12:35:28.343Z,32.5
2017-08-07T12:36:29.086Z,32.1
2017-08-07T12:37:29.890Z,31.7
2017-08-07T12:38:30.683Z,32.1
2017-08-07T12:39:31.901Z,32.8
2017-08-07T12:40:32.651Z,32.9
2017-08-07T12:41:33.396Z,33.4
2017-08-07T12:42:34.144Z,33.8
2017-08-07T12:43:34.899Z,34.2
2017-08-07T12:44:36.043Z,34.3
2017-08-07T12:45:36.806Z,34.6
2017-08-07T12:46:37.567Z,34.6
2017-08-07T12:47:38.767Z,34.9
2017-08-07T12:48:39.464Z,34.4
2017-08-07T12:49:40.716Z,33.9
2017-08-07T12:50:41.606Z,33.7
2017-08-07T12:51:42.434Z,32.2
2017-08-07T12:52:43.265Z,30.6
2017-08-07T12:53:44.031Z,29.9
2017-08-07T12:54:45.195Z,30.8
2017-08-07T12:55:45.938Z,29.9
2017-08-07T12:56:46.692Z,29.5
2017-08-07T12:57:47.507Z,29.4
2017-08-07T12:58:48.256Z,30.0
2017-08-07T12:59:49.357Z,30.3
2017-08-07T13:00:50.112Z,31.1
2017-08-07T13:01:50.950Z,31.8
2017-08-07T13:02:51.700Z,31.5
2017-08-07T13:03:52.445Z,31.9
2017-08-07T13:04:53.674Z,32.4
2017-08-07T13:05:54.427Z,33.0
2017-08-07T13:06:55.313Z,33.6
2017-08-07T13:07:56.019Z,33.7
2017-08-07T13:08:56.830Z,34.1
2017-08-07T13:09:58.001Z,34.6
2017-08-07T13:10:59.732Z,34.7
2017-08-07T13:12:00.726Z,34.9
2017-08-07T13:13:01.487Z,34.7
2017-08-07T13:14:02.248Z,34.9
2017-08-07T13:15:03.085Z,35.3
2017-08-07T13:16:03.824Z,35.3
2017-08-07T13:17:04.926Z,35.2
2017-08-07T13:18:05.682Z,35.5
2017-08-07T13:19:06.429Z,35.6
2017-08-07T13:20:07.610Z,35.4
2017-08-07T13:21:08.502Z,34.8
2017-08-07T13:22:09.334Z,34.2
2017-08-07T13:23:10.645Z,34.0
2017-08-07T13:24:11.382Z,33.9
2017-08-07T13:25:12.140Z,33.4
2017-08-07T13:26:12.897Z,32.2
2017-08-07T13:27:13.689Z,32.1
2017-08-07T13:28:14.512Z,31.9
2017-08-07T13:29:15.722Z,31.8
2017-08-07T13:30:16.561Z,30.8
2017-08-07T13:31:17.311Z,30.7
2017-08-07T13:32:18.072Z,30.9
2017-08-07T13:33:18.885Z,31.0
2017-08-07T13:34:20.078Z,30.7